createdAt,value
2018-01-15T00:01:31.619Z,100414.16
2018-01-15T00:04:00.869Z,100412.55
2018-01-15T00:06:30.084Z,100417.39
2018-01-15T00:08:59.311Z,100408.65
2018-01-15T00:11:28.577Z,100405.84
2018-01-15T00:13:57.783Z,100402.08
2018-01-15T00:16:27.005Z,100412.28
2018-01-15T00:18:56.218Z,100407.17
2018-01-15T00:21:26.220Z,100411.22
2018-01-15T00:23:56.302Z,100399.27
2018-01-15T00:26:25.503Z,100395.63
2018-01-15T00:28:54.699Z,100393.63
2018-01-15T00:31:23.936Z,100383.16
2018-01-15T00:33:53.175Z,100379.55
2018-01-15T00:36:22.394Z,100376.17
2018-01-15T00:38:51.628Z,100368.00
2018-01-15T00:41:20.851Z,100358.85
2018-01-15T00:43:50.849Z,100359.79
2018-01-15T00:46:20.834Z,100358.31
2018-01-15T00:48:50.039Z,100360.74
2018-01-15T00:51:19.272Z,100349.06
2018-01-15T00:53:50.078Z,100346.12
2018-01-15T00:56:19.345Z,100333.77
2018-01-15T00:58:48.606Z,100332.95
2018-01-15T01:01:18.642Z,100331.63
2018-01-15T01:03:48.000Z,100330.12
2018-01-15T01:06:17.210Z,100333.09
2018-01-15T01:08:46.451Z,100332.70
2018-01-15T01:11:15.683Z,100328.92
2018-01-15T01:13:44.913Z,100327.45
2018-01-15T01:16:14.907Z,100327.99
2018-01-15T01:18:44.335Z,100332.55
2018-01-15T01:21:14.321Z,100322.06
2018-01-15T01:23:43.556Z,100327.59
2018-01-15T01:26:13.613Z,100330.54
2018-01-15T01:28:42.821Z,100329.88
2018-01-15T01:31:12.205Z,100322.63
2018-01-15T01:33:41.401Z,100320.33
2018-01-15T01:36:10.628Z,100319.38
2018-01-15T01:38:39.972Z,100309.34
2018-01-15T01:41:09.970Z,100307.70
2018-01-15T01:43:40.629Z,100308.10
2018-01-15T01:46:09.938Z,100298.32
2018-01-15T01:48:39.215Z,100309.86
2018-01-15T01:51:08.462Z,100302.88
2018-01-15T01:53:37.674Z,100295.50
2018-01-15T01:56:07.342Z,100298.05
2018-01-15T01:58:36.612Z,100291.20
2018-01-15T02:01:06.590Z,100293.08
2018-01-15T02:03:35.866Z,100286.52
2018-01-15T02:06:05.095Z,100276.44
2018-01-15T02:08:34.363Z,100269.99
2018-01-15T02:11:03.594Z,100270.69
2018-01-15T02:13:32.869Z,100266.38
2018-01-15T02:16:02.245Z,100272.41
2018-01-15T02:18:31.447Z,100270.80
2018-01-15T02:21:00.690Z,100269.19
2018-01-15T02:23:30.779Z,100268.66
2018-01-15T02:26:00.012Z,100267.05
2018-01-15T02:28:29.251Z,100257.14
2018-01-15T02:30:58.514Z,100259.41
2018-01-15T02:33:27.747Z,100255.92
2018-01-15T02:35:56.991Z,100245.60
2018-01-15T02:38:26.202Z,100236.86
2018-01-15T02:40:55.433Z,100233.09
2018-01-15T02:43:24.643Z,100231.77
2018-01-15T02:45:53.844Z,100227.75
2018-01-15T02:48:23.068Z,100226.80
2018-01-15T02:50:52.536Z,100225.33
2018-01-15T02:53:21.757Z,100223.87
2018-01-15T02:55:50.959Z,100217.02
2018-01-15T02:58:20.239Z,100209.51
2018-01-15T03:00:49.506Z,100208.95
2018-01-15T03:03:19.494Z,100200.47
2018-01-15T03:05:48.711Z,100201.81
2018-01-15T03:08:17.998Z,100209.05
2018-01-15T03:10:47.203Z,100209.86
2018-01-15T03:13:16.412Z,100201.41
2018-01-15T03:15:45.613Z,100193.05
2018-01-15T03:18:15.582Z,100184.72
2018-01-15T03:20:44.802Z,100189.66
2018-01-15T03:23:14.016Z,100178.91
2018-01-15T03:25:43.250Z,100169.41
2018-01-15T03:28:12.470Z,100166.95
2018-01-15T03:30:41.690Z,100152.98
2018-01-15T03:33:10.898Z,100147.57
2018-01-15T03:35:40.169Z,100138.83
2018-01-15T03:38:09.361Z,100138.13
2018-01-15T03:40:38.806Z,100131.70
2018-01-15T03:43:08.793Z,100126.59
2018-01-15T03:45:38.012Z,100125.88
2018-01-15T03:48:07.235Z,100119.56
2018-01-15T03:50:36.458Z,100114.59
2018-01-15T03:53:05.699Z,100121.25
2018-01-15T03:55:36.408Z,100103.81
2018-01-15T03:58:05.640Z,100100.30
2018-01-15T04:00:35.631Z,100097.30
2018-01-15T04:03:06.471Z,100094.16
2018-01-15T04:05:36.602Z,100090.06
2018-01-15T04:08:05.848Z,100091.37
2018-01-15T04:10:35.078Z,100084.52
2018-01-15T04:13:04.333Z,100077.07
2018-01-15T04:15:33.592Z,100081.76
2018-01-15T04:18:02.788Z,100078.45
2018-01-15T04:20:32.012Z,100074.38
2018-01-15T04:23:02.010Z,100057.27
2018-01-15T04:25:31.227Z,100053.20
2018-01-15T04:28:00.570Z,100043.36
2018-01-15T04:30:29.884Z,100046.88
2018-01-15T04:32:59.091Z,100044.81
2018-01-15T04:35:28.339Z,100039.61
2018-01-15T04:37:57.562Z,100039.03
2018-01-15T04:40:26.779Z,100040.45
2018-01-15T04:42:56.266Z,100033.77
2018-01-15T04:45:25.502Z,100032.23
2018-01-15T04:47:54.706Z,100035.44
2018-01-15T04:50:24.751Z,100035.65
2018-01-15T04:52:53.951Z,100026.61
2018-01-15T04:55:23.185Z,100018.66
2018-01-15T04:57:52.447Z,100019.38
2018-01-15T05:00:21.721Z,100022.17
2018-01-15T05:02:50.927Z,100017.20
2018-01-15T05:05:20.165Z,100011.80
2018-01-15T05:07:49.373Z,100005.61
2018-01-15T05:10:18.582Z,100002.59
2018-01-15T05:12:47.826Z,99997.47
2018-01-15T05:15:17.918Z,99987.02
2018-01-15T05:17:47.142Z,99986.72
2018-01-15T05:20:16.345Z,99979.05
2018-01-15T05:22:45.827Z,99977.91
2018-01-15T05:25:15.821Z,99973.59
2018-01-15T05:27:46.714Z,99970.00
2018-01-15T05:30:15.962Z,99970.11
2018-01-15T05:32:45.181Z,99968.17
2018-01-15T05:35:14.607Z,99961.45
2018-01-15T05:37:43.814Z,99958.83
2018-01-15T05:40:13.059Z,99957.73
2018-01-15T05:42:42.251Z,99955.44
2018-01-15T05:45:12.264Z,99957.43
2018-01-15T05:47:41.466Z,99953.20
2018-01-15T05:50:10.713Z,99940.19
2018-01-15T05:52:39.904Z,99947.42
2018-01-15T05:55:09.114Z,99945.63
2018-01-15T05:57:38.352Z,99937.81
2018-01-15T06:00:07.554Z,99934.44
2018-01-15T06:02:36.763Z,99935.27
2018-01-15T06:05:08.451Z,99933.47
2018-01-15T06:07:37.678Z,99932.63
2018-01-15T06:10:06.879Z,99938.67
2018-01-15T06:12:36.223Z,99924.16
2018-01-15T06:15:06.200Z,99924.27
2018-01-15T06:17:35.427Z,99912.06
2018-01-15T06:20:05.554Z,99910.52
2018-01-15T06:22:35.595Z,99902.00
2018-01-15T06:25:04.814Z,99902.88
2018-01-15T06:27:34.052Z,99897.70
2018-01-15T06:30:04.030Z,99900.84
2018-01-15T06:32:33.245Z,99900.68
2018-01-15T06:35:02.625Z,99898.66
2018-01-15T06:37:31.817Z,99890.86
2018-01-15T06:40:01.031Z,99890.12
2018-01-15T06:42:31.172Z,99887.28
2018-01-15T06:45:00.338Z,99883.19
2018-01-15T06:47:29.567Z,99870.15
2018-01-15T06:49:58.910Z,99864.41
2018-01-15T06:52:28.086Z,99858.09
2018-01-15T06:54:58.066Z,99847.11
2018-01-15T06:57:27.262Z,99844.82
2018-01-15T06:59:56.574Z,99839.79
2018-01-15T07:02:25.793Z,99836.78
2018-01-15T07:04:55.782Z,99834.98
2018-01-15T07:07:25.181Z,99833.63
2018-01-15T07:09:54.431Z,99824.25
2018-01-15T07:12:23.745Z,99819.91
2018-01-15T07:14:52.984Z,99815.86
2018-01-15T07:17:23.680Z,99809.70
2018-01-15T07:19:52.928Z,99814.88
2018-01-15T07:22:22.116Z,99806.86
2018-01-15T07:24:51.385Z,99811.14
2018-01-15T07:27:20.578Z,99798.88
2018-01-15T07:29:49.807Z,99794.12
2018-01-15T07:32:19.027Z,99798.90
2018-01-15T07:34:49.035Z,99798.27
2018-01-15T07:37:18.999Z,99800.41
2018-01-15T07:39:49.082Z,99797.33
2018-01-15T07:42:19.092Z,99790.94
2018-01-15T07:44:49.090Z,99787.13
2018-01-15T07:47:18.334Z,99786.73
2018-01-15T07:49:48.283Z,99783.86
2018-01-15T07:52:17.513Z,99771.94
2018-01-15T07:54:46.739Z,99779.04
2018-01-15T07:57:15.954Z,99776.90
2018-01-15T07:59:45.163Z,99780.55
2018-01-15T08:02:14.405Z,99778.35
2018-01-15T08:04:43.605Z,99778.84
2018-01-15T08:07:12.992Z,99764.34
2018-01-15T08:09:42.239Z,99753.11
2018-01-15T08:12:11.453Z,99759.70
2018-01-15T08:14:40.939Z,99752.96
2018-01-15T08:17:10.143Z,99745.28
2018-01-15T08:19:41.939Z,99738.94
2018-01-15T08:22:11.151Z,99733.52
2018-01-15T08:24:41.110Z,99731.78
2018-01-15T08:27:10.314Z,99719.02
2018-01-15T08:29:39.537Z,99715.70
2018-01-15T08:32:08.779Z,99716.44
2018-01-15T08:34:39.231Z,99706.11
2018-01-15T08:37:08.541Z,99712.17
2018-01-15T08:39:37.741Z,99701.19
2018-01-15T08:42:06.972Z,99692.45
2018-01-15T08:44:36.175Z,99699.07
2018-01-15T08:47:05.587Z,99697.06
2018-01-15T08:49:34.961Z,99689.34
2018-01-15T08:52:04.161Z,99695.38
2018-01-15T08:54:33.406Z,99697.34
2018-01-15T08:57:03.419Z,99693.23
2018-01-15T08:59:32.627Z,99696.53
2018-01-15T09:02:01.838Z,99703.05
2018-01-15T09:04:31.074Z,99693.10
2018-01-15T09:07:00.310Z,99703.42
2018-01-15T09:09:30.281Z,99691.36
2018-01-15T09:11:59.481Z,99681.20
2018-01-15T09:14:28.754Z,99669.31
2018-01-15T09:16:57.980Z,99676.02
2018-01-15T09:19:27.201Z,99674.00
2018-01-15T09:21:56.417Z,99676.96
2018-01-15T09:24:25.641Z,99665.06
2018-01-15T09:26:55.682Z,99662.85
2018-01-15T09:29:24.882Z,99663.05
2018-01-15T09:31:54.118Z,99651.32
2018-01-15T09:34:24.136Z,99648.18
2018-01-15T09:36:53.351Z,99650.49
2018-01-15T09:39:22.557Z,99641.60
2018-01-15T09:41:51.771Z,99632.16
2018-01-15T09:44:20.990Z,99629.03
2018-01-15T09:46:50.180Z,99622.67
2018-01-15T09:49:19.425Z,99620.77
2018-01-15T09:51:49.381Z,99621.77
2018-01-15T09:54:18.594Z,99605.73
2018-01-15T09:56:47.777Z,99600.02
2018-01-15T09:59:17.051Z,99605.81
2018-01-15T10:01:46.241Z,99601.41
2018-01-15T10:04:15.502Z,99590.41
2018-01-15T10:06:44.710Z,99586.70
2018-01-15T10:09:14.924Z,99575.34
2018-01-15T10:11:45.004Z,99582.84
2018-01-15T10:14:14.186Z,99579.50
2018-01-15T10:16:43.423Z,99575.92
2018-01-15T10:19:12.621Z,99569.36
2018-01-15T10:21:43.323Z,99569.14
2018-01-15T10:24:12.638Z,99555.11
2018-01-15T10:26:41.822Z,99558.14
2018-01-15T10:29:11.107Z,99549.26
2018-01-15T10:31:40.411Z,99557.91
2018-01-15T10:34:09.611Z,99555.02
2018-01-15T10:36:38.837Z,99553.81
2018-01-15T10:39:08.076Z,99554.37
2018-01-15T10:41:37.274Z,99551.02
2018-01-15T10:44:06.515Z,99523.70
2018-01-15T10:46:35.730Z,99529.11
2018-01-15T10:49:05.016Z,99517.51
2018-01-15T10:51:34.216Z,99517.91
2018-01-15T10:54:03.456Z,99514.54
2018-01-15T10:56:33.444Z,99504.05
2018-01-15T10:59:02.625Z,99508.22
2018-01-15T11:01:31.865Z,99500.25
2018-01-15T11:04:01.100Z,99488.27
2018-01-15T11:06:30.378Z,99482.67
2018-01-15T11:09:00.324Z,99467.56
2018-01-15T11:11:29.591Z,99468.63
2018-01-15T11:13:58.802Z,99445.72
2018-01-15T11:16:28.035Z,99447.55
2018-01-15T11:18:57.231Z,99435.23
2018-01-15T11:21:26.428Z,99430.29
2018-01-15T11:23:55.668Z,99420.34
2018-01-15T11:26:25.119Z,99401.58
2018-01-15T11:28:54.378Z,99398.05
2018-01-15T11:31:23.618Z,99401.38
2018-01-15T11:33:52.873Z,99397.27
2018-01-15T11:36:22.062Z,99381.20
2018-01-15T11:38:52.075Z,99373.95
2018-01-15T11:41:22.940Z,99365.44
2018-01-15T11:43:52.172Z,99365.11
2018-01-15T11:46:21.368Z,99351.98
2018-01-15T11:48:50.581Z,99338.75
2018-01-15T11:51:19.795Z,99340.73
2018-01-15T11:53:49.774Z,99325.62
2018-01-15T11:56:19.033Z,99315.42
2018-01-15T11:58:48.278Z,99299.54
2018-01-15T12:01:17.486Z,99300.66
2018-01-15T12:03:46.717Z,99291.33
2018-01-15T12:06:16.698Z,99288.78
2018-01-15T12:08:45.924Z,99278.91
2018-01-15T12:11:15.152Z,99272.38
2018-01-15T12:13:44.374Z,99261.45
2018-01-15T12:16:13.785Z,99251.83
2018-01-15T12:18:43.035Z,99259.78
2018-01-15T12:21:12.379Z,99250.48
2018-01-15T12:23:41.556Z,99239.98
2018-01-15T12:26:10.782Z,99224.11
2018-01-15T12:28:41.484Z,99231.70
2018-01-15T12:31:10.683Z,99213.02
2018-01-15T12:33:40.538Z,99197.98
2018-01-15T12:36:09.763Z,99188.64
2018-01-15T12:38:39.854Z,99179.78
2018-01-15T12:41:09.904Z,99176.92
2018-01-15T12:43:40.520Z,99155.18
2018-01-15T12:46:10.493Z,99137.85
2018-01-15T12:48:39.706Z,99138.41
2018-01-15T12:51:09.710Z,99135.86
2018-01-15T12:53:39.354Z,99141.83
2018-01-15T12:56:09.317Z,99118.37
2018-01-15T12:58:38.531Z,99112.96
2018-01-15T13:01:09.245Z,99099.80
2018-01-15T13:03:39.087Z,99098.73
2018-01-15T13:06:08.302Z,99082.05
2018-01-15T13:22:08.334Z,99020.16
2018-01-15T13:24:37.591Z,99021.06
2018-01-15T13:27:06.796Z,99022.78
2018-01-15T13:29:35.983Z,99015.06
2018-01-15T13:32:05.177Z,98992.66
2018-01-15T13:34:35.199Z,98992.67
2018-01-15T13:37:04.422Z,98977.25
2018-01-15T13:39:33.650Z,98982.31
2018-01-15T13:42:02.869Z,98976.58
2018-01-15T13:44:32.078Z,98955.34
2018-01-15T13:47:01.293Z,98965.25
2018-01-15T13:49:30.507Z,98955.57
2018-01-15T13:52:00.573Z,98948.42
2018-01-15T13:54:29.761Z,98941.95
2018-01-15T13:56:58.990Z,98934.06
2018-01-15T13:59:28.249Z,98923.50
2018-01-15T14:01:58.220Z,98924.30
2018-01-15T14:04:28.259Z,98916.47
2018-01-15T14:06:57.495Z,98913.82
2018-01-15T14:09:26.731Z,98926.97
2018-01-15T14:11:56.726Z,98918.47
2018-01-15T14:14:25.938Z,98903.61
2018-01-15T14:16:55.969Z,98898.31
2018-01-15T14:19:25.215Z,98884.44
2018-01-15T14:21:54.454Z,98895.40
2018-01-15T14:24:24.435Z,98898.35
2018-01-15T14:26:53.650Z,98884.73
2018-01-15T14:29:22.878Z,98880.34
2018-01-15T14:31:52.835Z,98886.91
2018-01-15T14:34:22.070Z,98879.14
2018-01-15T14:36:51.265Z,98870.86
2018-01-15T14:39:20.482Z,98852.95
2018-01-15T14:41:50.440Z,98854.48
2018-01-15T14:44:19.774Z,98830.78
2018-01-15T14:46:48.947Z,98819.03
2018-01-15T14:49:18.409Z,98812.14
2018-01-15T14:51:48.521Z,98788.66
2018-01-15T14:54:17.794Z,98794.87
2018-01-15T14:56:47.047Z,98790.31
2018-01-15T14:59:16.274Z,98788.03
2018-01-15T15:01:45.467Z,98774.34
2018-01-15T15:04:14.735Z,98762.08
2018-01-15T15:06:43.942Z,98759.63
2018-01-15T15:09:13.148Z,98758.39
2018-01-15T15:11:42.363Z,98759.91
2018-01-15T15:14:11.594Z,98745.95
2018-01-15T15:16:41.595Z,98748.70
2018-01-15T15:19:10.850Z,98731.02
2018-01-15T15:21:40.075Z,98718.41
2018-01-15T15:24:09.280Z,98713.02
2018-01-15T15:26:38.527Z,98689.19
2018-01-15T15:29:07.725Z,98681.55
2018-01-15T15:31:37.021Z,98683.84
2018-01-15T15:34:07.041Z,98677.83
2018-01-15T15:36:36.251Z,98669.35
2018-01-15T15:39:05.454Z,98658.39
2018-01-15T15:41:35.317Z,98645.48
2018-01-15T15:44:05.364Z,98632.70
2018-01-15T15:46:34.728Z,98598.37
2018-01-15T15:49:04.194Z,98596.13
2018-01-15T15:51:33.509Z,98591.30
2018-01-15T15:54:02.933Z,98571.22
2018-01-15T15:56:32.206Z,98558.59
2018-01-15T15:59:01.380Z,98560.05
2018-01-15T16:01:30.568Z,98551.31
2018-01-15T16:03:59.808Z,98554.35
2018-01-15T16:06:29.019Z,98521.61
2018-01-15T16:08:58.224Z,98523.30
2018-01-15T16:11:28.226Z,98513.02
2018-01-15T16:13:57.587Z,98503.03
2018-01-15T16:16:27.612Z,98496.17
2018-01-15T16:18:56.819Z,98492.75
2018-01-15T16:21:26.006Z,98488.03
2018-01-15T16:23:55.311Z,98471.81
2018-01-15T16:26:24.538Z,98457.48
2018-01-15T16:28:53.815Z,98458.23
2018-01-15T16:31:23.075Z,98439.57
2018-01-15T16:33:52.239Z,98434.18
2018-01-15T16:36:22.247Z,98417.88
2018-01-15T16:38:51.508Z,98418.67
2018-01-15T16:41:20.755Z,98408.70
2018-01-15T16:43:49.954Z,98407.41
2018-01-15T16:46:19.214Z,98399.09
2018-01-15T16:48:48.421Z,98386.80
2018-01-15T16:51:17.676Z,98377.28
2018-01-15T16:53:46.934Z,98367.63
2018-01-15T16:56:16.142Z,98368.92
2018-01-15T16:58:46.123Z,98354.93
2018-01-15T17:01:15.370Z,98344.71
2018-01-15T17:03:45.336Z,98336.41
2018-01-15T17:06:14.701Z,98321.63
2018-01-15T17:08:43.942Z,98326.19
2018-01-15T17:11:13.292Z,98316.19
2018-01-15T17:13:43.467Z,98312.48
2018-01-15T17:16:12.894Z,98301.14
2018-01-15T17:18:42.178Z,98302.53
2018-01-15T17:21:11.470Z,98301.19
2018-01-15T17:23:41.508Z,98286.58
2018-01-15T17:26:10.863Z,98280.97
2018-01-15T17:28:40.086Z,98288.84
2018-01-15T17:31:09.281Z,98271.62
2018-01-15T17:33:38.677Z,98267.18
2018-01-15T17:36:08.575Z,98254.41
2018-01-15T17:38:37.833Z,98253.41
2018-01-15T17:41:07.893Z,98249.11
2018-01-15T17:43:37.162Z,98235.41
2018-01-15T17:46:07.138Z,98226.98
2018-01-15T17:48:36.351Z,98224.63
2018-01-15T17:51:06.320Z,98209.42
2018-01-15T17:53:35.606Z,98205.87
2018-01-15T17:56:04.840Z,98201.05
2018-01-15T17:58:34.055Z,98193.74
2018-01-15T18:01:03.275Z,98191.17
2018-01-15T18:03:32.570Z,98188.27
2018-01-15T18:06:02.557Z,98185.18
2018-01-15T18:08:31.827Z,98169.02
2018-01-15T18:11:01.084Z,98173.01
2018-01-15T18:13:31.127Z,98174.63
2018-01-15T18:16:01.088Z,98161.45
2018-01-15T18:18:32.024Z,98151.30
2018-01-15T18:21:02.067Z,98151.30
2018-01-15T18:23:32.195Z,98142.52
2018-01-15T18:26:02.266Z,98137.21
2018-01-15T18:28:31.458Z,98128.80
2018-01-15T18:31:01.725Z,98127.70
2018-01-15T18:33:30.952Z,98117.41
2018-01-15T18:36:00.230Z,98097.90
2018-01-15T18:38:30.968Z,98104.97
2018-01-15T18:41:00.223Z,98093.58
2018-01-15T18:43:29.426Z,98084.33
2018-01-15T18:45:58.672Z,98081.41
2018-01-15T18:48:28.618Z,98082.63
2018-01-15T18:50:57.842Z,98066.81
2018-01-15T18:53:27.791Z,98057.81
2018-01-15T18:55:57.057Z,98047.08
2018-01-15T18:58:26.344Z,98050.55
2018-01-15T19:00:55.612Z,98034.30
2018-01-15T19:03:24.922Z,98032.35
2018-01-15T19:05:54.147Z,98023.98
2018-01-15T19:08:23.410Z,98015.45
2018-01-15T19:10:53.430Z,98011.75
2018-01-15T19:13:22.681Z,98002.50
2018-01-15T19:15:52.652Z,97996.63
2018-01-15T19:18:23.360Z,97992.41
2018-01-15T19:20:54.363Z,97972.09
2018-01-15T19:23:24.393Z,97973.77
2018-01-15T19:25:54.388Z,97968.83
2018-01-15T19:28:23.782Z,97962.45
2018-01-15T19:30:53.021Z,97957.98
2018-01-15T19:33:22.219Z,97952.48
2018-01-15T19:49:26.636Z,97940.23
2018-01-15T19:52:01.356Z,97929.34
2018-01-15T19:54:35.919Z,97926.72
2018-01-15T19:57:10.677Z,97928.91
2018-01-15T19:59:45.641Z,97935.50
2018-01-15T20:02:20.215Z,97903.41
2018-01-15T20:04:54.704Z,97881.27
2018-01-15T20:07:29.233Z,97875.85
2018-01-15T20:10:03.850Z,97886.45
2018-01-15T20:12:33.059Z,97882.45
2018-01-15T20:15:02.286Z,97898.02
2018-01-15T20:17:32.290Z,97894.04
2018-01-15T20:20:01.518Z,97887.90
2018-01-15T20:22:31.518Z,97875.02
2018-01-15T20:25:00.702Z,97900.20
2018-01-15T20:27:31.488Z,97886.59
2018-01-15T20:30:00.700Z,97876.20
2018-01-15T20:32:29.938Z,97873.67
2018-01-15T20:35:00.044Z,97870.20
2018-01-15T20:37:29.344Z,97896.98
2018-01-15T20:39:58.602Z,97888.68
2018-01-15T20:42:27.865Z,97857.14
2018-01-15T20:44:58.545Z,97880.45
2018-01-15T20:47:27.770Z,97887.55
2018-01-15T20:49:56.991Z,97886.38
2018-01-15T20:52:26.983Z,97869.84
2018-01-15T20:54:56.167Z,97881.38
2018-01-15T20:57:27.076Z,97864.84
2018-01-15T20:59:56.303Z,97857.86
2018-01-15T21:02:25.566Z,97855.98
2018-01-15T21:04:55.680Z,97836.15
2018-01-15T21:07:25.637Z,97822.88
2018-01-15T21:09:54.830Z,97859.31
2018-01-15T21:12:24.057Z,97864.94
2018-01-15T21:14:53.277Z,97860.03
2018-01-15T21:17:23.226Z,97851.41
2018-01-15T21:19:52.456Z,97851.27
2018-01-15T21:22:21.697Z,97828.37
2018-01-15T21:24:50.915Z,97843.38
2018-01-15T21:27:20.127Z,97858.60
2018-01-15T21:29:49.419Z,97861.13
2018-01-15T21:32:18.623Z,97853.81
2018-01-15T21:34:47.811Z,97857.80
2018-01-15T21:37:17.050Z,97850.95
2018-01-15T21:39:46.235Z,97862.31
2018-01-15T21:42:15.521Z,97858.27
2018-01-15T21:44:44.707Z,97857.88
2018-01-15T21:47:13.922Z,97843.58
2018-01-15T21:49:43.121Z,97836.92
2018-01-15T21:52:13.207Z,97841.86
2018-01-15T21:54:42.425Z,97832.69
2018-01-15T21:57:11.633Z,97825.26
2018-01-15T21:59:40.833Z,97816.39
2018-01-15T22:02:10.172Z,97834.63
2018-01-15T22:04:40.123Z,97833.75
2018-01-15T22:07:09.326Z,97834.84
2018-01-15T22:09:38.522Z,97827.72
2018-01-15T22:12:07.862Z,97837.36
2018-01-15T22:14:37.044Z,97840.88
2018-01-15T22:17:06.254Z,97846.86
2018-01-15T22:19:35.498Z,97845.73
2018-01-15T22:22:04.779Z,97840.61
2018-01-15T22:24:34.175Z,97849.69
2018-01-15T22:27:04.163Z,97840.36
2018-01-15T22:29:33.388Z,97832.84
2018-01-15T22:32:03.354Z,97848.44
2018-01-15T22:34:32.586Z,97855.48
2018-01-15T22:37:02.678Z,97842.92
2018-01-15T22:39:32.229Z,97834.50
2018-01-15T22:42:01.608Z,97839.09
2018-01-15T22:44:30.878Z,97851.33
2018-01-15T22:47:00.698Z,97831.16
2018-01-15T22:49:29.978Z,97835.84
2018-01-15T22:51:59.198Z,97835.19
2018-01-15T22:54:28.451Z,97840.31
2018-01-15T22:56:58.506Z,97834.91
2018-01-15T22:59:27.943Z,97831.20
2018-01-15T23:01:57.157Z,97833.20
2018-01-15T23:04:26.380Z,97835.58
2018-01-15T23:06:55.603Z,97833.98
2018-01-15T23:09:24.844Z,97822.41
2018-01-15T23:11:54.039Z,97830.51
2018-01-15T23:14:23.886Z,97830.80
2018-01-15T23:16:53.103Z,97834.31
2018-01-15T23:19:22.379Z,97832.99
2018-01-15T23:21:51.810Z,97837.48
2018-01-15T23:24:21.175Z,97819.41
2018-01-15T23:26:50.405Z,97817.12
2018-01-15T23:29:19.602Z,97817.03
2018-01-15T23:31:48.856Z,97811.92
2018-01-15T23:34:18.044Z,97817.14
2018-01-15T23:36:47.254Z,97828.33
2018-01-15T23:39:16.469Z,97814.86
2018-01-15T23:41:45.686Z,97813.36
2018-01-15T23:44:15.050Z,97821.81
2018-01-15T23:46:44.362Z,97826.98
2018-01-15T23:49:14.334Z,97834.77
2018-01-15T23:51:43.660Z,97850.27
2018-01-15T23:54:31.183Z,97859.56
2018-01-15T23:57:01.154Z,97856.11
2018-01-15T23:59:30.498Z,97861.39
